createdAt,value
2023-02-15T00:01:30.608Z,0.74
2023-02-15T00:03:58.839Z,0.74
2023-02-15T00:06:27.489Z,0.74
2023-02-15T00:08:56.453Z,0.74
2023-02-15T00:11:43.390Z,0.74
2023-02-15T00:14:16.732Z,0.71
2023-02-15T00:16:46.034Z,0.67
2023-02-15T00:19:16.550Z,0.67
2023-02-15T00:21:45.330Z,0.67
2023-02-15T00:24:16.310Z,0.69
2023-02-15T00:26:45.150Z,0.73
2023-02-15T00:29:16.320Z,0.76
2023-02-15T00:31:44.815Z,0.75
2023-02-15T00:34:22.311Z,0.77
2023-02-15T00:36:51.185Z,0.79
2023-02-15T00:39:20.069Z,0.80
2023-02-15T00:41:48.763Z,0.80
2023-02-15T00:44:17.282Z,0.84
2023-02-15T00:46:45.561Z,0.86
2023-02-15T00:49:13.836Z,0.90
2023-02-15T00:51:42.120Z,0.94
2023-02-15T00:54:10.538Z,0.96
2023-02-15T00:56:38.806Z,0.99
2023-02-15T00:59:07.519Z,0.99
2023-02-15T01:01:35.839Z,1.00
2023-02-15T01:04:04.230Z,1.02
2023-02-15T01:06:32.591Z,1.03
2023-02-15T01:09:00.840Z,1.06
2023-02-15T01:11:29.134Z,1.10
2023-02-15T01:13:59.135Z,1.14
2023-02-15T01:16:28.981Z,1.17
2023-02-15T01:18:57.842Z,1.18
2023-02-15T01:21:27.503Z,1.18
2023-02-15T01:23:55.740Z,1.18
2023-02-15T01:26:24.172Z,1.20
2023-02-15T01:28:52.454Z,1.22
2023-02-15T01:31:22.691Z,1.24
2023-02-15T01:33:51.105Z,1.28
2023-02-15T01:36:19.488Z,1.29
2023-02-15T01:38:47.804Z,1.30
2023-02-15T01:41:24.421Z,1.31
2023-02-15T01:43:59.744Z,1.32
2023-02-15T01:46:42.321Z,1.32
2023-02-15T01:49:18.254Z,1.31
2023-02-15T01:51:48.658Z,1.34
2023-02-15T01:54:21.826Z,1.39
2023-02-15T01:56:50.120Z,1.44
2023-02-15T01:59:22.337Z,1.47
2023-02-15T02:01:53.636Z,1.49
2023-02-15T02:04:34.538Z,1.52
2023-02-15T02:07:04.904Z,1.52
2023-02-15T02:09:33.663Z,1.54
2023-02-15T02:12:02.820Z,1.57
2023-02-15T02:14:31.984Z,1.61
2023-02-15T02:17:06.235Z,1.64
2023-02-15T02:19:53.099Z,1.65
2023-02-15T02:22:21.299Z,1.64
2023-02-15T02:25:02.236Z,1.64
2023-02-15T02:27:41.097Z,1.63
2023-02-15T02:30:38.596Z,1.62
2023-02-15T02:33:12.828Z,1.64
2023-02-15T02:36:07.400Z,1.67
2023-02-15T02:39:04.625Z,1.68
2023-02-15T02:41:38.088Z,1.68
2023-02-15T02:44:12.200Z,1.68
2023-02-15T02:47:10.628Z,1.67
2023-02-15T02:49:44.698Z,1.67
2023-02-15T02:52:48.431Z,1.68
2023-02-15T02:55:42.381Z,1.70
2023-02-15T02:58:38.765Z,1.72
2023-02-15T03:01:14.860Z,1.70
2023-02-15T03:03:48.206Z,1.69
2023-02-15T03:06:30.468Z,1.65
2023-02-15T03:09:06.644Z,1.64
2023-02-15T03:11:35.294Z,1.64
2023-02-15T03:14:03.602Z,1.64
2023-02-15T03:16:32.485Z,1.62
2023-02-15T03:19:10.068Z,1.60
2023-02-15T03:21:58.847Z,1.56
2023-02-15T03:24:37.093Z,1.52
2023-02-15T03:27:13.033Z,1.48
2023-02-15T03:29:41.273Z,1.44
2023-02-15T03:32:12.423Z,1.42
2023-02-15T03:34:40.906Z,1.40
2023-02-15T03:37:25.549Z,1.39
2023-02-15T03:40:36.054Z,1.36
2023-02-15T03:43:32.811Z,1.31
2023-02-15T03:46:14.051Z,1.26
2023-02-15T03:48:53.347Z,1.20
2023-02-15T03:51:36.221Z,1.17
2023-02-15T03:54:43.673Z,1.14
2023-02-15T03:57:53.886Z,1.11
2023-02-15T04:00:45.041Z,1.08
2023-02-15T04:03:21.548Z,1.05
2023-02-15T04:05:50.169Z,1.03
2023-02-15T04:08:18.403Z,1.00
2023-02-15T04:10:57.290Z,0.95
2023-02-15T04:13:32.741Z,0.92
2023-02-15T04:16:08.143Z,0.89
2023-02-15T04:19:00.838Z,0.88
2023-02-15T04:21:49.998Z,0.88
2023-02-15T04:24:37.773Z,0.88
2023-02-15T04:27:07.035Z,0.87
2023-02-15T04:29:35.337Z,0.86
2023-02-15T04:32:03.707Z,0.83
2023-02-15T04:34:32.060Z,0.80
2023-02-15T04:37:00.573Z,0.77
2023-02-15T04:39:28.754Z,0.75
2023-02-15T04:41:56.965Z,0.74
2023-02-15T04:44:25.337Z,0.73
2023-02-15T04:46:53.578Z,0.73
2023-02-15T04:49:21.806Z,0.71
2023-02-15T04:51:50.072Z,0.69
2023-02-15T04:54:18.302Z,0.66
2023-02-15T04:56:46.600Z,0.64
2023-02-15T04:59:15.109Z,0.62
2023-02-15T05:01:43.307Z,0.61
2023-02-15T05:04:11.885Z,0.61
2023-02-15T05:06:40.247Z,0.61
2023-02-15T05:09:08.553Z,0.61
2023-02-15T05:11:36.765Z,0.60
2023-02-15T05:14:05.767Z,0.57
2023-02-15T05:16:34.453Z,0.55
2023-02-15T05:19:02.716Z,0.53
2023-02-15T05:21:31.320Z,0.49
2023-02-15T05:23:59.666Z,0.47
2023-02-15T05:26:46.597Z,0.45
2023-02-15T05:29:14.864Z,0.44
2023-02-15T05:31:45.535Z,0.43
2023-02-15T05:34:14.027Z,0.43
2023-02-15T05:36:42.324Z,0.40
2023-02-15T05:39:10.594Z,0.37
2023-02-15T05:41:38.781Z,0.34
2023-02-15T05:44:07.073Z,0.31
2023-02-15T05:46:35.359Z,0.29
2023-02-15T05:49:03.592Z,0.28
2023-02-15T05:51:31.882Z,0.29
2023-02-15T05:54:00.113Z,0.29
2023-02-15T05:56:28.373Z,0.30
2023-02-15T05:58:56.668Z,0.30
2023-02-15T06:01:24.842Z,0.30
2023-02-15T06:03:53.607Z,0.30
2023-02-15T06:06:21.881Z,0.29
2023-02-15T06:08:50.365Z,0.29
2023-02-15T06:11:18.903Z,0.29
2023-02-15T06:13:47.468Z,0.29
2023-02-15T06:16:17.167Z,0.31
2023-02-15T06:18:45.546Z,0.33
2023-02-15T06:21:14.284Z,0.33
2023-02-15T06:23:42.642Z,0.32
2023-02-15T06:26:10.999Z,0.32
2023-02-15T06:28:39.359Z,0.30
2023-02-15T06:31:07.978Z,0.30
2023-02-15T06:33:36.363Z,0.31
2023-02-15T06:36:05.102Z,0.32
2023-02-15T06:38:33.654Z,0.34
2023-02-15T06:41:01.833Z,0.35
2023-02-15T06:43:30.090Z,0.35
2023-02-15T06:45:59.370Z,0.34
2023-02-15T06:48:27.955Z,0.33
2023-02-15T06:50:56.329Z,0.32
2023-02-15T06:53:24.719Z,0.33
2023-02-15T06:55:52.919Z,0.35
2023-02-15T06:58:21.191Z,0.36
2023-02-15T07:00:50.651Z,0.38
2023-02-15T07:03:18.904Z,0.39
2023-02-15T07:05:48.710Z,0.39
2023-02-15T07:08:16.939Z,0.38
2023-02-15T07:10:45.512Z,0.38
2023-02-15T07:13:13.785Z,0.39
2023-02-15T07:15:41.997Z,0.41
2023-02-15T07:18:11.843Z,0.45
2023-02-15T07:20:42.692Z,0.48
2023-02-15T07:23:10.936Z,0.49
2023-02-15T07:25:39.192Z,0.51
2023-02-15T07:28:08.166Z,0.52
2023-02-15T07:30:38.382Z,0.54
2023-02-15T07:33:25.302Z,0.57
2023-02-15T07:35:59.285Z,0.63
2023-02-15T07:38:29.097Z,0.65
2023-02-15T07:41:01.864Z,0.67
2023-02-15T07:43:31.163Z,0.69
2023-02-15T07:46:05.919Z,0.71
2023-02-15T07:48:35.073Z,0.74
2023-02-15T07:51:06.156Z,0.78
2023-02-15T07:53:35.181Z,0.84
2023-02-15T07:56:07.379Z,0.88
2023-02-15T07:58:55.100Z,0.89
2023-02-15T08:01:30.941Z,0.91
2023-02-15T08:03:59.656Z,0.94
2023-02-15T08:06:30.671Z,0.96
2023-02-15T08:08:59.210Z,1.01
2023-02-15T08:11:31.206Z,1.05
2023-02-15T08:14:03.791Z,1.10
2023-02-15T08:16:35.325Z,1.15
2023-02-15T08:19:07.613Z,1.16
2023-02-15T08:21:38.507Z,1.17
2023-02-15T08:24:08.375Z,1.20
2023-02-15T08:26:37.179Z,1.25
2023-02-15T08:29:07.794Z,1.29
2023-02-15T08:31:38.465Z,1.32
2023-02-15T08:34:07.235Z,1.37
2023-02-15T08:36:36.200Z,1.40
2023-02-15T08:39:06.212Z,1.41
2023-02-15T08:41:35.939Z,1.44
2023-02-15T08:44:07.795Z,1.48
2023-02-15T08:46:39.506Z,1.53
2023-02-15T08:49:07.776Z,1.56
2023-02-15T08:51:38.044Z,1.60
2023-02-15T08:54:11.757Z,1.63
2023-02-15T08:56:42.280Z,1.64
2023-02-15T08:59:18.030Z,1.68
2023-02-15T09:01:47.092Z,1.74
2023-02-15T09:04:17.024Z,1.78
2023-02-15T09:06:49.079Z,1.81
2023-02-15T09:09:18.929Z,1.84
2023-02-15T09:11:51.394Z,1.87
2023-02-15T09:14:22.788Z,1.92
2023-02-15T09:16:53.200Z,1.98
2023-02-15T09:19:23.155Z,2.02
2023-02-15T09:21:51.516Z,2.07
2023-02-15T09:24:20.033Z,2.09
2023-02-15T09:26:49.737Z,2.12
2023-02-15T09:29:18.885Z,2.17
2023-02-15T09:31:51.129Z,2.21
2023-02-15T09:34:22.299Z,2.28
2023-02-15T09:36:52.163Z,2.36
2023-02-15T09:39:30.623Z,2.41
2023-02-15T09:42:56.594Z,2.44
2023-02-15T09:45:33.327Z,2.52
2023-02-15T09:48:07.160Z,2.59
2023-02-15T09:50:54.493Z,2.66
2023-02-15T09:53:22.679Z,2.73
2023-02-15T09:56:15.240Z,2.79
2023-02-15T09:58:52.389Z,2.85
2023-02-15T10:01:32.734Z,2.90
2023-02-15T10:04:01.003Z,2.98
2023-02-15T10:06:49.844Z,3.05
2023-02-15T10:09:43.311Z,3.15
2023-02-15T10:12:20.290Z,3.22
2023-02-15T10:14:58.696Z,3.26
2023-02-15T10:18:00.146Z,3.32
2023-02-15T10:20:49.190Z,3.40
2023-02-15T10:23:32.905Z,3.49
2023-02-15T10:26:19.953Z,3.59
2023-02-15T10:28:55.329Z,3.66
2023-02-15T10:31:38.312Z,3.73
2023-02-15T10:34:15.875Z,3.80
2023-02-15T10:36:56.419Z,3.87
2023-02-15T10:39:40.044Z,3.93
2023-02-15T10:42:37.136Z,4.01
2023-02-15T10:45:11.421Z,4.06
2023-02-15T10:48:22.628Z,4.10
2023-02-15T10:50:57.414Z,4.14
2023-02-15T10:53:47.663Z,4.19
2023-02-15T10:56:31.344Z,4.26
2023-02-15T10:59:18.862Z,4.34
2023-02-15T11:01:56.528Z,4.39
2023-02-15T11:04:29.250Z,4.41
2023-02-15T11:07:07.071Z,4.42
2023-02-15T11:09:43.497Z,4.46
2023-02-15T11:12:17.205Z,4.53
2023-02-15T11:15:12.766Z,4.61
2023-02-15T11:17:47.207Z,4.66
2023-02-15T11:20:30.665Z,4.70
2023-02-15T11:23:02.061Z,4.74
2023-02-15T11:25:35.826Z,4.76
2023-02-15T11:28:13.150Z,4.77
2023-02-15T11:30:52.909Z,4.81
2023-02-15T11:33:30.762Z,4.87
2023-02-15T11:36:05.313Z,4.93
2023-02-15T11:38:35.690Z,5.00
2023-02-15T11:41:11.053Z,5.05
2023-02-15T11:43:49.540Z,5.10
2023-02-15T11:46:19.981Z,5.15
2023-02-15T11:48:49.048Z,5.18
2023-02-15T11:51:22.667Z,5.24
2023-02-15T11:53:53.858Z,5.30
2023-02-15T11:56:25.193Z,5.35
2023-02-15T11:59:15.609Z,5.40
2023-02-15T12:01:46.049Z,5.46
2023-02-15T12:04:41.716Z,5.54
2023-02-15T12:07:31.515Z,5.60
2023-02-15T12:10:05.512Z,5.65
2023-02-15T12:12:37.539Z,5.68
2023-02-15T12:15:09.349Z,5.74
2023-02-15T12:17:42.564Z,5.78
2023-02-15T12:20:13.621Z,5.81
2023-02-15T12:22:51.038Z,5.82
2023-02-15T12:25:24.995Z,5.84
2023-02-15T12:27:53.459Z,5.85
2023-02-15T12:30:51.865Z,5.89
2023-02-15T12:33:26.181Z,5.95
2023-02-15T12:36:20.302Z,6.00
2023-02-15T12:39:09.199Z,6.07
2023-02-15T12:41:38.632Z,6.13
2023-02-15T12:44:24.543Z,6.19
2023-02-15T12:47:08.558Z,6.23
2023-02-15T12:49:39.518Z,6.25
2023-02-15T12:52:26.241Z,6.28
2023-02-15T12:54:54.498Z,6.31
2023-02-15T12:57:28.975Z,6.32
2023-02-15T13:00:01.901Z,6.36
2023-02-15T13:02:56.698Z,6.43
2023-02-15T13:05:44.216Z,6.52
2023-02-15T13:08:42.842Z,6.60
2023-02-15T13:11:13.372Z,6.67
2023-02-15T13:14:27.654Z,6.72
2023-02-15T13:17:00.349Z,6.77
2023-02-15T13:19:44.046Z,6.79
2023-02-15T13:22:18.470Z,6.80
2023-02-15T13:25:30.206Z,6.82
2023-02-15T13:28:06.355Z,6.86
2023-02-15T13:30:43.354Z,6.90
2023-02-15T13:33:38.610Z,6.93
2023-02-15T13:36:19.248Z,6.92
2023-02-15T13:39:12.040Z,6.93
2023-02-15T13:42:07.219Z,6.94
2023-02-15T13:44:38.563Z,6.93
2023-02-15T13:47:25.185Z,6.93
2023-02-15T13:50:12.451Z,6.92
2023-02-15T13:52:53.437Z,6.92
2023-02-15T13:55:52.166Z,6.90
2023-02-15T13:58:45.452Z,6.88
2023-02-15T14:01:34.057Z,6.88
2023-02-15T14:04:21.175Z,6.89
2023-02-15T14:06:58.689Z,6.91
2023-02-15T14:09:42.346Z,6.92
2023-02-15T14:12:29.461Z,6.92
2023-02-15T14:15:13.000Z,6.89
2023-02-15T14:17:50.994Z,6.88
2023-02-15T14:20:42.890Z,6.86
2023-02-15T14:23:30.700Z,6.84
2023-02-15T14:26:11.100Z,6.82
2023-02-15T14:28:58.037Z,6.80
2023-02-15T14:31:34.715Z,6.78
2023-02-15T14:34:05.574Z,6.80
2023-02-15T14:36:34.793Z,6.81
2023-02-15T14:39:47.982Z,6.82
2023-02-15T14:42:39.272Z,6.82
2023-02-15T14:45:19.322Z,6.81
2023-02-15T14:47:57.019Z,6.79
2023-02-15T14:50:50.044Z,6.75
2023-02-15T14:53:39.677Z,6.72
2023-02-15T14:56:19.275Z,6.69
2023-02-15T14:58:53.623Z,6.66
2023-02-15T15:01:34.540Z,6.64
2023-02-15T15:04:10.001Z,6.64
2023-02-15T15:06:42.214Z,6.65
2023-02-15T15:09:30.854Z,6.66
2023-02-15T15:12:21.970Z,6.64
2023-02-15T15:14:51.918Z,6.63
2023-02-15T15:17:35.427Z,6.61
2023-02-15T15:20:14.808Z,6.58
2023-02-15T15:22:44.412Z,6.54
2023-02-15T15:25:37.838Z,6.50
2023-02-15T15:28:07.439Z,6.47
2023-02-15T15:30:35.794Z,6.45
2023-02-15T15:33:13.129Z,6.43
2023-02-15T15:35:57.130Z,6.41
2023-02-15T15:38:50.347Z,6.38
2023-02-15T15:41:36.800Z,6.33
2023-02-15T15:44:10.897Z,6.28
2023-02-15T15:46:58.302Z,6.24
2023-02-15T15:49:32.246Z,6.20
2023-02-15T15:52:21.260Z,6.15
2023-02-15T15:54:56.244Z,6.12
2023-02-15T15:57:39.496Z,6.09
2023-02-15T16:00:26.072Z,6.06
2023-02-15T16:02:56.736Z,6.01
2023-02-15T16:05:25.188Z,5.96
2023-02-15T16:07:53.605Z,5.91
2023-02-15T16:10:25.260Z,5.85
2023-02-15T16:12:55.760Z,5.79
2023-02-15T16:15:36.160Z,5.73
2023-02-15T16:18:05.311Z,5.69
2023-02-15T16:20:38.126Z,5.65
2023-02-15T16:23:24.857Z,5.62
2023-02-15T16:26:27.121Z,5.57
2023-02-15T16:28:55.919Z,5.51
2023-02-15T16:31:24.509Z,5.44
2023-02-15T16:33:55.882Z,5.38
2023-02-15T16:36:28.977Z,5.33
2023-02-15T16:38:57.237Z,5.29
2023-02-15T16:41:28.772Z,5.27
2023-02-15T16:44:02.792Z,5.26
2023-02-15T16:46:32.713Z,5.23
2023-02-15T16:49:06.284Z,5.19
2023-02-15T16:51:37.102Z,5.13
2023-02-15T16:54:09.050Z,5.08
2023-02-15T16:56:37.602Z,5.01
2023-02-15T16:59:06.229Z,4.96
2023-02-15T17:01:36.325Z,4.94
2023-02-15T17:04:15.692Z,4.91
2023-02-15T17:06:59.930Z,4.86
2023-02-15T17:09:28.272Z,4.79
2023-02-15T17:11:57.093Z,4.73
2023-02-15T17:14:30.070Z,4.69
2023-02-15T17:17:07.329Z,4.64
2023-02-15T17:19:46.807Z,4.57
2023-02-15T17:22:22.672Z,4.51
2023-02-15T17:25:00.646Z,4.47
2023-02-15T17:27:33.047Z,4.43
2023-02-15T17:30:18.459Z,4.41
2023-02-15T17:33:19.830Z,4.35
2023-02-15T17:36:13.032Z,4.27
2023-02-15T17:39:00.422Z,4.21
2023-02-15T17:41:38.501Z,4.17
2023-02-15T17:44:15.123Z,4.14
2023-02-15T17:46:48.365Z,4.13
2023-02-15T17:49:28.049Z,4.11
2023-02-15T17:51:57.130Z,4.07
2023-02-15T17:54:44.435Z,4.03
2023-02-15T17:57:17.082Z,3.98
2023-02-15T18:00:04.653Z,3.94
2023-02-15T18:02:55.254Z,3.92
2023-02-15T18:05:42.517Z,3.91
2023-02-15T18:08:37.828Z,3.90
2023-02-15T18:11:29.615Z,3.89
2023-02-15T18:14:01.707Z,3.88
2023-02-15T18:16:43.511Z,3.86
2023-02-15T18:19:17.203Z,3.81
2023-02-15T18:21:47.292Z,3.81
2023-02-15T18:24:24.631Z,3.80
2023-02-15T18:26:54.572Z,3.82
2023-02-15T18:29:22.975Z,3.81
2023-02-15T18:31:57.964Z,3.79
2023-02-15T18:34:32.840Z,3.77
2023-02-15T18:37:06.573Z,3.74
2023-02-15T18:39:34.823Z,3.71
2023-02-15T18:42:05.195Z,3.72
2023-02-15T18:44:33.500Z,3.73
2023-02-15T18:47:01.809Z,3.75
2023-02-15T18:49:30.003Z,3.77
2023-02-15T18:51:58.248Z,3.79
2023-02-15T18:54:27.037Z,3.80
2023-02-15T18:57:00.934Z,3.81
2023-02-15T18:59:31.361Z,3.82
2023-02-15T19:02:00.705Z,3.84
2023-02-15T19:04:29.098Z,3.86
2023-02-15T19:06:57.834Z,3.84
2023-02-15T19:09:27.969Z,3.86
2023-02-15T19:11:56.736Z,3.84
2023-02-15T19:14:26.692Z,3.81
2023-02-15T19:16:55.407Z,3.80
2023-02-15T19:19:24.797Z,3.80
2023-02-15T19:21:53.977Z,3.81
2023-02-15T19:24:30.151Z,3.80
2023-02-15T19:26:58.577Z,3.79
2023-02-15T19:29:30.732Z,3.78
2023-02-15T19:31:59.217Z,3.74
2023-02-15T19:34:28.374Z,3.70
2023-02-15T19:36:56.991Z,3.69
2023-02-15T19:39:33.225Z,3.70
2023-02-15T19:42:01.747Z,3.70
2023-02-15T19:44:30.133Z,3.68
2023-02-15T19:46:58.489Z,3.65
2023-02-15T19:49:26.822Z,3.61
2023-02-15T19:51:56.008Z,3.58
2023-02-15T19:54:24.315Z,3.58
2023-02-15T19:56:52.570Z,3.58
2023-02-15T19:59:29.446Z,3.59
2023-02-15T20:01:58.811Z,3.58
2023-02-15T20:04:27.385Z,3.56
2023-02-15T20:06:59.644Z,3.56
2023-02-15T20:09:41.081Z,3.54
2023-02-15T20:12:22.129Z,3.54
2023-02-15T20:14:51.582Z,3.55
2023-02-15T20:17:19.984Z,3.54
2023-02-15T20:19:48.373Z,3.53
2023-02-15T20:22:27.487Z,3.51
2023-02-15T20:24:57.230Z,3.49
2023-02-15T20:27:26.703Z,3.50
2023-02-15T20:29:57.569Z,3.50
2023-02-15T20:32:26.077Z,3.51
2023-02-15T20:34:54.488Z,3.52
2023-02-15T20:37:29.080Z,3.51
2023-02-15T20:39:57.574Z,3.49
2023-02-15T20:42:25.816Z,3.47
2023-02-15T20:44:54.600Z,3.45
2023-02-15T20:47:23.055Z,3.44
2023-02-15T20:49:51.525Z,3.46
2023-02-15T20:52:21.260Z,3.47
2023-02-15T20:54:49.723Z,3.48
2023-02-15T20:57:18.274Z,3.46
2023-02-15T20:59:46.593Z,3.46
2023-02-15T21:02:21.455Z,3.45
2023-02-15T21:04:50.191Z,3.44
2023-02-15T21:07:20.753Z,3.45
2023-02-15T21:09:50.322Z,3.46
2023-02-15T21:12:21.694Z,3.45
2023-02-15T21:14:50.208Z,3.44
2023-02-15T21:17:18.681Z,3.41
2023-02-15T21:19:54.438Z,3.38
2023-02-15T21:22:24.003Z,3.37
2023-02-15T21:24:55.128Z,3.36
2023-02-15T21:27:24.802Z,3.37
2023-02-15T21:29:53.137Z,3.37
2023-02-15T21:32:21.583Z,3.36
2023-02-15T21:34:49.930Z,3.34
2023-02-15T21:37:31.143Z,3.33
2023-02-15T21:39:59.596Z,3.32
2023-02-15T21:42:47.647Z,3.32
2023-02-15T21:45:36.700Z,3.33
2023-02-15T21:48:05.297Z,3.30
2023-02-15T21:50:54.815Z,3.25
2023-02-15T21:53:31.398Z,3.20
2023-02-15T21:56:02.306Z,3.16
2023-02-15T21:58:33.813Z,3.14
2023-02-15T22:01:03.392Z,3.11
2023-02-15T22:03:35.403Z,3.11
2023-02-15T22:06:04.883Z,3.11
2023-02-15T22:08:34.359Z,3.10
2023-02-15T22:11:03.019Z,3.10
2023-02-15T22:13:34.729Z,3.11
2023-02-15T22:16:03.549Z,3.11
2023-02-15T22:18:35.222Z,3.13
2023-02-15T22:21:04.612Z,3.14
2023-02-15T22:23:33.122Z,3.14
2023-02-15T22:26:08.070Z,3.12
2023-02-15T22:28:39.009Z,3.11
2023-02-15T22:31:12.628Z,3.10
2023-02-15T22:33:41.312Z,3.09
2023-02-15T22:36:25.132Z,3.09
2023-02-15T22:38:56.370Z,3.10
2023-02-15T22:41:29.089Z,3.09
2023-02-15T22:43:58.185Z,3.08
2023-02-15T22:46:26.984Z,3.08
2023-02-15T22:48:55.425Z,3.06
2023-02-15T22:51:25.123Z,3.06
2023-02-15T22:53:54.073Z,3.07
2023-02-15T22:56:26.664Z,3.07
2023-02-15T22:59:02.199Z,3.07
2023-02-15T23:01:32.988Z,3.07
2023-02-15T23:04:03.634Z,3.07
2023-02-15T23:06:34.530Z,3.04
2023-02-15T23:09:03.923Z,3.03
2023-02-15T23:11:32.261Z,3.02
2023-02-15T23:14:04.764Z,3.01
2023-02-15T23:16:37.540Z,3.00
2023-02-15T23:19:06.812Z,2.99
2023-02-15T23:21:35.375Z,2.99
2023-02-15T23:24:23.950Z,2.98
2023-02-15T23:26:52.739Z,2.95
2023-02-15T23:29:23.508Z,2.93
2023-02-15T23:31:54.601Z,2.91
2023-02-15T23:34:29.815Z,2.92
2023-02-15T23:36:58.342Z,2.92
2023-02-15T23:39:54.690Z,2.91
2023-02-15T23:42:31.955Z,2.89
2023-02-15T23:45:00.611Z,2.87
2023-02-15T23:47:51.110Z,2.85
2023-02-15T23:50:26.477Z,2.84
2023-02-15T23:52:56.004Z,2.84
2023-02-15T23:55:28.689Z,2.86
2023-02-15T23:57:57.105Z,2.86
